Time;durP1;ratioP1;P1;durP2;ratioP2;P2;SDS_P1;SDS_P2;PMS_P1;PMS_P2;Temp;Humidity;BMP_temperature;BMP_pressure;BME280_temperature;BME280_humidity;BME280_pressure;Samples;Min_cycle;Max_cycle;Signal;HPM_P1;HPM_P2
2022/08/16 00:01:02;;;;;;;;;;;;;;;;;;4995532;28;19983;-55
2022/08/16 00:03:27;;;;;;;;;;;;;;;;;;5000401;28;19917;-54
2022/08/16 00:05:52;;;;;;;;;;;;;;;;;;5001865;28;19921;-57
2022/08/16 00:08:18;;;;;;;;;;;;;;;;;;4998384;28;20401;-55
2022/08/16 00:10:43;;;;;;;;;;;;;;;;;;5001842;28;19921;-53
2022/08/16 00:13:08;;;;;;;;;;;;;;;;;;4994662;28;20176;-57
2022/08/16 00:15:33;;;;;;;;;;;;;;;;;;4996752;28;19917;-53
2022/08/16 00:17:58;;;;;;;;;;;;;;;;;;5001835;28;19928;-58
2022/08/16 00:20:24;;;;;;;;;;;;;;;;;;4998937;28;20286;-54
2022/08/16 00:22:49;;;;;;;;;;;;;;;;;;5005225;28;20015;-57
2022/08/16 00:25:14;;;;;;;;;;;;;;;;;;4995514;28;19928;-58
2022/08/16 00:27:39;;;;;;;;;;;;;;;;;;4999783;28;20008;-54
2022/08/16 00:30:04;;;;;;;;;;;;;;;;;;5017089;28;19929;-54
2022/08/16 00:32:29;;;;;;;;;;;;;;;;;;5002614;28;19986;-54
2022/08/16 00:34:55;;;;;;;;;;;;;;;;;;5020794;28;19917;-57
2022/08/16 00:37:20;;;;;;;;;;;;;;;;;;5012971;28;19921;-52
2022/08/16 00:39:45;;;;;;;;;;;;;;;;;;5013424;28;20646;-57
2022/08/16 00:42:10;;;;;;;;;;;;;;;;;;5015754;28;19928;-58
2022/08/16 00:44:35;;;;;;;;;;;;;;;;;;5013655;28;19917;-55
2022/08/16 00:47:03;;;;;;;;;;;;;;;;;;5019485;28;19924;-52
2022/08/16 00:49:29;;;;;;;;;;;;;;;;;;4999898;28;19956;-56
2022/08/16 00:51:54;;;;;;;;;;;;;;;;;;5005783;28;19957;-54
2022/08/16 00:54:20;;;;;;;;;;;;;;;;;;5012797;28;19917;-56
2022/08/16 00:56:46;;;;;;;;;;;;;;;;;;5017600;28;20313;-56
2022/08/16 00:59:11;;;;;;;;;;;;;;;;;;5019094;28;20420;-57
2022/08/16 01:01:36;;;;;;;;;;;;;;;;;;5012453;28;20580;-57
2022/08/16 01:04:01;;;;;;;;;;;;;;;;;;5020900;28;20389;-56
2022/08/16 01:06:27;;;;;;;;;;;;;;;;;;5026419;28;19917;-54
2022/08/16 01:08:53;;;;;;;;;;;;;;;;;;5006590;28;19922;-56
2022/08/16 01:11:18;;;;;;;;;;;;;;;;;;5023705;28;19940;-58
2022/08/16 01:13:43;;;;;;;;;;;;;;;;;;5008231;28;20645;-58
2022/08/16 01:16:09;;;;;;;;;;;;;;;;;;5009272;28;19917;-55
2022/08/16 01:18:34;;;;;;;;;;;;;;;;;;5009580;28;20493;-57
2022/08/16 01:20:59;;;;;;;;;;;;;;;;;;5018903;28;19918;-56
2022/08/16 01:23:25;;;;;;;;;;;;;;;;;;5025892;28;19917;-57
2022/08/16 01:25:51;;;;;;;;;;;;;;;;;;5009494;28;19917;-53
2022/08/16 01:28:16;;;;;;;;;;;;;;;;;;5006079;28;19918;-54
2022/08/16 01:30:41;;;;;;;;;;;;;;;;;;5011231;28;19974;-56
2022/08/16 01:33:07;;;;;;;;;;;;;;;;;;5018597;28;19928;-55
2022/08/16 01:35:32;;;;;;;;;;;;;;;;;;5023950;28;19921;-58
2022/08/16 01:37:57;;;;;;;;;;;;;;;;;;5011759;28;19922;-56
2022/08/16 01:40:25;;;;;;;;;;;;;;;;;;5020260;28;19917;-52
2022/08/16 01:42:51;;;;;;;;;;;;;;;;;;5031440;28;20439;-55
2022/08/16 01:45:16;;;;;;;;;;;;;;;;;;5007025;28;19924;-58
2022/08/16 01:47:41;;;;;;;;;;;;;;;;;;5020888;28;19917;-53
2022/08/16 01:50:07;;;;;;;;;;;;;;;;;;5010207;28;19928;-55
2022/08/16 01:52:32;;;;;;;;;;;;;;;;;;5014353;28;20328;-54
2022/08/16 01:55:05;;;;;;;;;;;;;;;;;;5028874;28;19921;-54
2022/08/16 01:57:30;;;;;;;;;;;;;;;;;;5018927;28;19963;-55
2022/08/16 01:59:56;;;;;;;;;;;;;;;;;;5021674;28;19987;-54
2022/08/16 02:02:25;;;;;;;;;;;;;;;;;;5027403;28;19917;-52
2022/08/16 02:04:50;;;;;;;;;;;;;;;;;;5006346;28;20036;-55
2022/08/16 02:07:17;;;;;;;;;;;;;;;;;;5026733;28;19947;-52
2022/08/16 02:09:42;;;;;;;;;;;;;;;;;;5003927;28;19921;-52
2022/08/16 02:12:08;;;;;;;;;;;;;;;;;;5022224;28;19921;-56
2022/08/16 02:14:34;;;;;;;;;;;;;;;;;;5018513;28;19917;-55
2022/08/16 02:17:00;;;;;;;;;;;;;;;;;;5023125;28;20740;-53
2022/08/16 02:19:26;;;;;;;;;;;;;;;;;;5016176;28;19972;-53
2022/08/16 02:21:51;;;;;;;;;;;;;;;;;;5007003;28;20278;-55
2022/08/16 02:24:16;;;;;;;;;;;;;;;;;;5007667;28;20737;-57
2022/08/16 02:26:41;;;;;;;;;;;;;;;;;;5026559;28;19932;-55
2022/08/16 02:29:07;;;;;;;;;;;;;;;;;;5020017;28;19948;-56
2022/08/16 02:31:32;;;;;;;;;;;;;;;;;;5027023;28;19971;-55
2022/08/16 02:33:57;;;;;;;;;;;;;;;;;;5022403;28;20622;-55
2022/08/16 02:36:34;;;;;;;;;;;;;;;;;;5013871;28;20449;-54
2022/08/16 02:38:59;;;;;;;;;;;;;;;;;;5026579;28;19976;-55
2022/08/16 02:41:25;;;;;;;;;;;;;;;;;;5012140;28;20849;-54
2022/08/16 02:43:50;;;;;;;;;;;;;;;;;;5011933;28;20028;-55
2022/08/16 02:46:15;;;;;;;;;;;;;;;;;;5024382;28;20524;-53
2022/08/16 02:48:40;;;;;;;;;;;;;;;;;;5026170;28;19923;-56
2022/08/16 02:51:05;;;;;;;;;;;;;;;;;;5030408;28;20664;-54
2022/08/16 02:53:31;;;;;;;;;;;;;;;;;;5011869;28;20350;-54
2022/08/16 02:55:56;;;;;;;;;;;;;;;;;;5016125;28;19917;-53
2022/08/16 02:58:22;;;;;;;;;;;;;;;;;;5010307;28;19921;-56
2022/08/16 03:00:47;;;;;;;;;;;;;;;;;;5026114;28;19921;-54
2022/08/16 03:03:12;;;;;;;;;;;;;;;;;;5027511;28;20905;-54
2022/08/16 03:05:37;;;;;;;;;;;;;;;;;;5011973;28;19943;-55
2022/08/16 03:08:03;;;;;;;;;;;;;;;;;;5014604;28;19952;-56
2022/08/16 03:10:34;;;;;;;;;;;;;;;;;;5015585;28;20007;-55
2022/08/16 03:13:00;;;;;;;;;;;;;;;;;;5023448;28;19952;-55
2022/08/16 03:15:27;;;;;;;;;;;;;;;;;;5021384;28;19918;-57
2022/08/16 03:17:52;;;;;;;;;;;;;;;;;;5010965;28;19928;-57
2022/08/16 03:20:18;;;;;;;;;;;;;;;;;;5012976;28;20642;-53
2022/08/16 03:22:43;;;;;;;;;;;;;;;;;;5024781;28;19953;-55
2022/08/16 03:25:11;;;;;;;;;;;;;;;;;;5023105;28;20357;-57
2022/08/16 03:27:38;;;;;;;;;;;;;;;;;;5029196;28;19917;-51
2022/08/16 03:30:05;;;;;;;;;;;;;;;;;;5024559;28;19928;-52
2022/08/16 03:32:31;;;;;;;;;;;;;;;;;;5025050;28;19921;-58
2022/08/16 03:34:56;;;;;;;;;;;;;;;;;;5026734;28;20381;-52
2022/08/16 03:37:21;;;;;;;;;;;;;;;;;;5024582;28;19921;-53
2022/08/16 03:39:47;;;;;;;;;;;;;;;;;;5027990;28;19914;-54
2022/08/16 03:42:12;;;;;;;;;;;;;;;;;;5024007;28;19917;-54
2022/08/16 03:44:37;;;;;;;;;;;;;;;;;;5025322;28;19970;-57
2022/08/16 03:47:02;;;;;;;;;;;;;;;;;;5011506;28;19917;-54
2022/08/16 03:49:31;;;;;;;;;;;;;;;;;;5014788;28;19917;-54
2022/08/16 03:51:56;;;;;;;;;;;;;;;;;;5015216;28;19921;-55
2022/08/16 03:54:27;;;;;;;;;;;;;;;;;;5009201;28;20567;-56
2022/08/16 03:56:52;;;;;;;;;;;;;;;;;;5021562;28;20382;-52
2022/08/16 03:59:17;;;;;;;;;;;;;;;;;;5028251;28;19923;-55
2022/08/16 04:01:46;;;;;;;;;;;;;;;;;;5023669;28;19925;-55
2022/08/16 04:04:11;;;;;;;;;;;;;;;;;;5032199;28;19967;-54
2022/08/16 04:06:37;;;;;;;;;;;;;;;;;;5015560;28;20586;-54
2022/08/16 04:09:02;;;;;;;;;;;;;;;;;;5026225;28;20240;-57
2022/08/16 04:11:27;;;;;;;;;;;;;;;;;;5019699;28;19921;-56
2022/08/16 04:13:53;;;;;;;;;;;;;;;;;;5027790;28;20381;-56
2022/08/16 04:16:20;;;;;;;;;;;;;;;;;;5030740;28;19917;-53
2022/08/16 04:18:47;;;;;;;;;;;;;;;;;;5028634;28;19923;-53
2022/08/16 04:21:12;;;;;;;;;;;;;;;;;;5027240;28;19917;-53
2022/08/16 04:23:37;;;;;;;;;;;;;;;;;;5013695;28;20183;-52
2022/08/16 04:26:03;;;;;;;;;;;;;;;;;;5013067;28;20380;-54
2022/08/16 04:28:31;;;;;;;;;;;;;;;;;;5026257;28;19967;-51
2022/08/16 04:30:56;;;;;;;;;;;;;;;;;;5029246;28;19921;-55
2022/08/16 04:33:21;;;;;;;;;;;;;;;;;;5028741;28;19922;-53
2022/08/16 04:35:47;;;;;;;;;;;;;;;;;;5012121;28;19917;-55
2022/08/16 04:38:12;;;;;;;;;;;;;;;;;;5028110;28;19917;-51
2022/08/16 04:40:43;;;;;;;;;;;;;;;;;;5026297;28;19917;-55
2022/08/16 04:43:09;;;;;;;;;;;;;;;;;;5026304;28;19967;-56
2022/08/16 04:45:34;;;;;;;;;;;;;;;;;;5013826;28;20763;-52
2022/08/16 04:48:00;;;;;;;;;;;;;;;;;;5026132;28;20301;-56
2022/08/16 04:50:31;;;;;;;;;;;;;;;;;;5003401;28;20036;-55
2022/08/16 04:53:23;;;;;;;;;;;;;;;;;;5010613;28;20134;-55
2022/08/16 04:55:50;;;;;;;;;;;;;;;;;;5012659;28;19917;-56
2022/08/16 04:58:15;;;;;;;;;;;;;;;;;;4996103;28;19930;-55
2022/08/16 05:00:40;;;;;;;;;;;;;;;;;;4990152;28;19921;-54
2022/08/16 05:03:09;;;;;;;;;;;;;;;;;;4988030;28;19918;-57
2022/08/16 05:05:45;;;;;;;;;;;;;;;;;;4995307;28;19917;-55
2022/08/16 05:08:13;;;;;;;;;;;;;;;;;;4988978;28;19917;-55
2022/08/16 05:10:42;;;;;;;;;;;;;;;;;;4986248;28;20410;-55
2022/08/16 05:13:08;;;;;;;;;;;;;;;;;;5003192;28;20028;-57
2022/08/16 05:15:33;;;;;;;;;;;;;;;;;;4997832;28;20402;-55
2022/08/16 05:17:58;;;;;;;;;;;;;;;;;;4987722;28;19971;-54
2022/08/16 05:20:25;;;;;;;;;;;;;;;;;;4990582;28;19987;-56
2022/08/16 05:22:51;;;;;;;;;;;;;;;;;;5001914;28;20078;-54
2022/08/16 05:25:18;;;;;;;;;;;;;;;;;;4994366;28;20028;-57
2022/08/16 05:27:48;;;;;;;;;;;;;;;;;;4998015;28;19929;-56
2022/08/16 05:30:16;;;;;;;;;;;;;;;;;;5005468;28;20366;-56
2022/08/16 05:32:42;;;;;;;;;;;;;;;;;;4994745;28;19929;-55
2022/08/16 05:35:07;;;;;;;;;;;;;;;;;;4994062;28;19917;-54
2022/08/16 05:37:33;;;;;;;;;;;;;;;;;;4998617;28;20004;-55
2022/08/16 05:39:58;;;;;;;;;;;;;;;;;;4992268;28;19924;-56
2022/08/16 05:42:23;;;;;;;;;;;;;;;;;;4994005;28;19921;-54
2022/08/16 05:44:49;;;;;;;;;;;;;;;;;;5000213;28;19917;-57
2022/08/16 05:47:14;;;;;;;;;;;;;;;;;;4992956;28;19946;-55
2022/08/16 05:49:39;;;;;;;;;;;;;;;;;;4999381;28;20016;-55
2022/08/16 05:52:05;;;;;;;;;;;;;;;;;;4994285;28;20039;-57
2022/08/16 05:54:30;;;;;;;;;;;;;;;;;;4993984;28;20457;-56
2022/08/16 05:56:58;;;;;;;;;;;;;;;;;;5000120;28;19918;-56
2022/08/16 05:59:24;;;;;;;;;;;;;;;;;;4991160;28;19928;-57
2022/08/16 06:01:50;;;;;;;;;;;;;;;;;;4994686;28;19918;-56
2022/08/16 06:04:16;;;;;;;;;;;;;;;;;;5007668;28;19918;-53
2022/08/16 06:06:46;;;;;;;;;;;;;;;;;;4992859;28;20421;-54
2022/08/16 06:09:11;;;;;;;;;;;;;;;;;;4990897;28;19922;-54
2022/08/16 06:11:37;;;;;;;;;;;;;;;;;;5005216;28;20214;-53
2022/08/16 06:14:02;;;;;;;;;;;;;;;;;;4991486;28;20809;-51
2022/08/16 06:16:34;;;;;;;;;;;;;;;;;;4999892;28;20004;-55
2022/08/16 06:18:59;;;;;;;;;;;;;;;;;;4990456;28;20979;-54
2022/08/16 06:21:25;;;;;;;;;;;;;;;;;;5011604;28;19917;-50
2022/08/16 06:23:56;;;;;;;;;;;;;;;;;;5003315;28;20695;-55
2022/08/16 06:26:21;;;;;;;;;;;;;;;;;;4996869;28;20487;-55
2022/08/16 06:28:47;;;;;;;;;;;;;;;;;;4997417;28;20031;-56
2022/08/16 06:31:17;;;;;;;;;;;;;;;;;;5010857;28;20048;-55
2022/08/16 06:33:45;;;;;;;;;;;;;;;;;;4998365;28;20626;-54
2022/08/16 06:36:13;;;;;;;;;;;;;;;;;;4995393;28;19921;-56
2022/08/16 06:38:38;;;;;;;;;;;;;;;;;;4998567;28;20072;-52
2022/08/16 06:41:13;;;;;;;;;;;;;;;;;;5010567;28;19921;-54
2022/08/16 06:43:38;;;;;;;;;;;;;;;;;;4998476;28;19918;-51
2022/08/16 06:46:08;;;;;;;;;;;;;;;;;;4997504;28;20414;-53
2022/08/16 06:48:33;;;;;;;;;;;;;;;;;;5012091;28;19976;-54
2022/08/16 06:51:00;;;;;;;;;;;;;;;;;;4997258;28;19921;-55
2022/08/16 06:53:25;;;;;;;;;;;;;;;;;;4997552;28;19928;-54
2022/08/16 06:55:57;;;;;;;;;;;;;;;;;;5003361;28;19917;-52
2022/08/16 06:58:23;;;;;;;;;;;;;;;;;;4997143;28;19925;-56
2022/08/16 07:00:58;;;;;;;;;;;;;;;;;;4997272;28;19949;-53
2022/08/16 07:03:24;;;;;;;;;;;;;;;;;;4997940;28;19961;-52
2022/08/16 07:05:50;;;;;;;;;;;;;;;;;;4993680;28;19922;-55
2022/08/16 07:08:23;;;;;;;;;;;;;;;;;;5010701;28;19917;-52
2022/08/16 07:10:48;;;;;;;;;;;;;;;;;;4996001;28;19922;-52
2022/08/16 07:13:14;;;;;;;;;;;;;;;;;;5009465;28;19995;-55
2022/08/16 07:15:41;;;;;;;;;;;;;;;;;;4995915;28;20322;-54
2022/08/16 07:18:06;;;;;;;;;;;;;;;;;;5009500;28;20353;-54
2022/08/16 07:20:31;;;;;;;;;;;;;;;;;;4995425;28;19917;-56
2022/08/16 07:22:56;;;;;;;;;;;;;;;;;;4993755;28;19999;-55
2022/08/16 07:25:26;;;;;;;;;;;;;;;;;;5001454;28;19925;-55
2022/08/16 07:27:52;;;;;;;;;;;;;;;;;;4995618;28;19918;-56
2022/08/16 07:30:23;;;;;;;;;;;;;;;;;;5008559;28;19922;-53
2022/08/16 07:32:49;;;;;;;;;;;;;;;;;;5008374;28;19921;-52
2022/08/16 07:35:15;;;;;;;;;;;;;;;;;;5008557;28;19937;-53
2022/08/16 07:37:40;;;;;;;;;;;;;;;;;;4995601;28;19922;-54
2022/08/16 07:40:28;;;;;;;;;;;;;;;;;;5006008;28;19917;-55
2022/08/16 07:42:53;;;;;;;;;;;;;;;;;;4994554;28;19988;-56
2022/08/16 07:45:19;;;;;;;;;;;;;;;;;;5002392;28;20422;-57
2022/08/16 07:47:48;;;;;;;;;;;;;;;;;;5009744;28;20389;-54
2022/08/16 07:50:15;;;;;;;;;;;;;;;;;;4995883;28;19925;-56
2022/08/16 07:52:40;;;;;;;;;;;;;;;;;;5010100;28;19922;-55
2022/08/16 07:55:09;;;;;;;;;;;;;;;;;;5001249;28;19918;-55
2022/08/16 07:57:34;;;;;;;;;;;;;;;;;;5001184;28;20428;-53
2022/08/16 07:59:59;;;;;;;;;;;;;;;;;;4996465;28;19917;-57
2022/08/16 08:02:25;;;;;;;;;;;;;;;;;;4995634;28;20005;-55
2022/08/16 08:04:53;;;;;;;;;;;;;;;;;;4993149;28;19918;-56
2022/08/16 08:07:18;;;;;;;;;;;;;;;;;;4992174;28;19918;-56
2022/08/16 08:09:43;;;;;;;;;;;;;;;;;;4997264;28;19925;-55
2022/08/16 08:12:09;;;;;;;;;;;;;;;;;;5008573;28;20370;-56
2022/08/16 08:14:38;;;;;;;;;;;;;;;;;;4994053;28;19968;-57
2022/08/16 08:17:07;;;;;;;;;;;;;;;;;;5000477;28;19948;-54
2022/08/16 08:19:32;;;;;;;;;;;;;;;;;;5000103;28;20432;-54
2022/08/16 08:21:57;;;;;;;;;;;;;;;;;;4993829;28;19917;-57
2022/08/16 08:24:33;;;;;;;;;;;;;;;;;;5010476;28;19956;-56
2022/08/16 08:26:59;;;;;;;;;;;;;;;;;;5008464;28;20377;-56
2022/08/16 08:29:24;;;;;;;;;;;;;;;;;;4994816;28;19922;-57
2022/08/16 08:31:50;;;;;;;;;;;;;;;;;;5001470;28;19928;-54
2022/08/16 08:34:17;;;;;;;;;;;;;;;;;;4994862;28;19922;-54
2022/08/16 08:36:42;;;;;;;;;;;;;;;;;;4994723;28;19954;-57
2022/08/16 08:39:17;;;;;;;;;;;;;;;;;;4995550;28;19924;-56
2022/08/16 08:41:43;;;;;;;;;;;;;;;;;;4994223;28;19922;-55
2022/08/16 08:44:08;;;;;;;;;;;;;;;;;;4994440;28;19918;-57
2022/08/16 08:46:33;;;;;;;;;;;;;;;;;;5000009;28;19978;-57
2022/08/16 08:48:58;;;;;;;;;;;;;;;;;;5000682;28;19924;-55
2022/08/16 08:51:24;;;;;;;;;;;;;;;;;;5008188;28;19925;-55
2022/08/16 08:53:52;;;;;;;;;;;;;;;;;;4993084;28;19918;-56
2022/08/16 08:56:17;;;;;;;;;;;;;;;;;;4993003;28;19917;-55
2022/08/16 08:58:42;;;;;;;;;;;;;;;;;;4992211;28;19925;-55
2022/08/16 09:01:16;;;;;;;;;;;;;;;;;;5007601;28;19918;-56
2022/08/16 09:03:41;;;;;;;;;;;;;;;;;;4994330;28;20718;-54
2022/08/16 09:06:07;;;;;;;;;;;;;;;;;;4993747;28;19924;-57
2022/08/16 09:08:34;;;;;;;;;;;;;;;;;;4994975;28;19968;-56
2022/08/16 09:11:03;;;;;;;;;;;;;;;;;;4999920;28;19972;-56
2022/08/16 09:13:31;;;;;;;;;;;;;;;;;;4993121;28;19982;-56
2022/08/16 09:15:57;;;;;;;;;;;;;;;;;;4993221;28;20746;-56
2022/08/16 09:18:23;;;;;;;;;;;;;;;;;;5008160;28;19967;-56
2022/08/16 09:20:50;;;;;;;;;;;;;;;;;;4992361;28;19971;-57
2022/08/16 09:23:15;;;;;;;;;;;;;;;;;;4992938;28;19956;-58
2022/08/16 09:25:42;;;;;;;;;;;;;;;;;;4995074;28;19917;-55
2022/08/16 09:28:11;;;;;;;;;;;;;;;;;;5006830;28;20766;-55
2022/08/16 09:30:43;;;;;;;;;;;;;;;;;;4993787;28;20384;-55
2022/08/16 09:33:08;;;;;;;;;;;;;;;;;;4992348;28;19917;-56
2022/08/16 09:35:34;;;;;;;;;;;;;;;;;;4990112;28;20430;-52
2022/08/16 09:37:59;;;;;;;;;;;;;;;;;;5006918;28;19922;-54
2022/08/16 09:40:25;;;;;;;;;;;;;;;;;;4995643;28;19980;-57
2022/08/16 09:42:52;;;;;;;;;;;;;;;;;;4989193;28;19917;-57
2022/08/16 09:45:17;;;;;;;;;;;;;;;;;;4991510;28;20355;-56
2022/08/16 09:47:42;;;;;;;;;;;;;;;;;;4991312;28;20037;-55
2022/08/16 09:50:08;;;;;;;;;;;;;;;;;;4991387;28;19968;-56
2022/08/16 09:52:36;;;;;;;;;;;;;;;;;;4992475;28;20040;-56
2022/08/16 09:55:02;;;;;;;;;;;;;;;;;;4990558;28;19961;-56
2022/08/16 09:57:27;;;;;;;;;;;;;;;;;;4991756;28;20489;-57
2022/08/16 09:59:52;;;;;;;;;;;;;;;;;;4990892;28;19924;-55
2022/08/16 10:02:17;;;;;;;;;;;;;;;;;;4989457;28;19949;-57
2022/08/16 10:04:43;;;;;;;;;;;;;;;;;;4996948;28;19992;-56
2022/08/16 10:07:08;;;;;;;;;;;;;;;;;;4991905;28;19983;-56
2022/08/16 10:09:33;;;;;;;;;;;;;;;;;;4988980;28;19918;-55
2022/08/16 10:14:42;;;;;;;;;;;;;;;;;;4988591;28;19947;-56
2022/08/16 10:17:09;;;;;;;;;;;;;;;;;;4991508;28;19918;-56
2022/08/16 10:19:34;;;;;;;;;;;;;;;;;;4990712;28;19939;-55
2022/08/16 10:21:59;;;;;;;;;;;;;;;;;;4990966;28;19918;-55
2022/08/16 10:24:25;;;;;;;;;;;;;;;;;;4990085;28;19964;-56
2022/08/16 10:26:51;;;;;;;;;;;;;;;;;;4993803;28;20020;-56
2022/08/16 10:29:17;;;;;;;;;;;;;;;;;;4989665;28;20753;-58
2022/08/16 10:31:42;;;;;;;;;;;;;;;;;;4989996;28;20402;-57
2022/08/16 10:34:07;;;;;;;;;;;;;;;;;;4990467;28;20649;-58
2022/08/16 10:36:32;;;;;;;;;;;;;;;;;;4991532;28;19929;-56
2022/08/16 10:38:57;;;;;;;;;;;;;;;;;;4992814;28;19918;-56
2022/08/16 10:41:23;;;;;;;;;;;;;;;;;;4992491;28;19917;-58
2022/08/16 10:43:48;;;;;;;;;;;;;;;;;;4992032;28;20599;-57
2022/08/16 10:46:13;;;;;;;;;;;;;;;;;;4990104;28;20318;-57
2022/08/16 10:48:39;;;;;;;;;;;;;;;;;;4991162;28;19914;-57
2022/08/16 10:51:04;;;;;;;;;;;;;;;;;;4990593;28;20103;-56
2022/08/16 10:53:30;;;;;;;;;;;;;;;;;;4998616;28;19928;-57
2022/08/16 10:55:55;;;;;;;;;;;;;;;;;;5007408;28;19992;-57
2022/08/16 10:58:21;;;;;;;;;;;;;;;;;;4992665;28;19917;-58
2022/08/16 11:00:46;;;;;;;;;;;;;;;;;;4993780;28;20577;-57
2022/08/16 11:03:11;;;;;;;;;;;;;;;;;;4990253;28;20298;-56
2022/08/16 11:05:37;;;;;;;;;;;;;;;;;;4991737;28;19928;-54
2022/08/16 11:08:02;;;;;;;;;;;;;;;;;;4995016;28;20012;-55
2022/08/16 11:10:27;;;;;;;;;;;;;;;;;;4993488;28;20705;-57
2022/08/16 11:12:53;;;;;;;;;;;;;;;;;;4996211;28;19921;-58
2022/08/16 11:15:19;;;;;;;;;;;;;;;;;;4994920;28;19917;-58
2022/08/16 11:17:45;;;;;;;;;;;;;;;;;;4992520;28;19925;-58
2022/08/16 11:20:12;;;;;;;;;;;;;;;;;;4993808;28;20027;-58
2022/08/16 11:22:38;;;;;;;;;;;;;;;;;;4995714;28;20382;-57
2022/08/16 11:25:03;;;;;;;;;;;;;;;;;;4994607;28;19924;-56
2022/08/16 11:27:28;;;;;;;;;;;;;;;;;;4995232;28;19996;-57
2022/08/16 11:29:53;;;;;;;;;;;;;;;;;;4996182;28;19921;-54
2022/08/16 11:32:19;;;;;;;;;;;;;;;;;;4995628;28;20219;-57
2022/08/16 11:34:44;;;;;;;;;;;;;;;;;;4995378;28;19917;-58
2022/08/16 11:37:09;;;;;;;;;;;;;;;;;;4994800;28;19921;-58
2022/08/16 11:39:35;;;;;;;;;;;;;;;;;;4997381;28;20785;-58
2022/08/16 11:42:00;;;;;;;;;;;;;;;;;;4997490;28;20618;-56
2022/08/16 11:44:25;;;;;;;;;;;;;;;;;;4992374;28;19945;-57
2022/08/16 11:46:51;;;;;;;;;;;;;;;;;;4995837;28;20402;-58
2022/08/16 11:49:16;;;;;;;;;;;;;;;;;;4993732;28;19928;-57
2022/08/16 11:51:42;;;;;;;;;;;;;;;;;;4995558;28;19922;-57
2022/08/16 11:54:08;;;;;;;;;;;;;;;;;;4995979;28;19928;-56
2022/08/16 11:56:33;;;;;;;;;;;;;;;;;;4996920;28;19918;-57
2022/08/16 11:58:58;;;;;;;;;;;;;;;;;;4996148;28;19922;-57
2022/08/16 12:01:24;;;;;;;;;;;;;;;;;;4997646;28;19917;-58
2022/08/16 12:03:49;;;;;;;;;;;;;;;;;;5000245;28;20306;-57
2022/08/16 12:06:14;;;;;;;;;;;;;;;;;;5011687;28;20359;-57
2022/08/16 12:08:39;;;;;;;;;;;;;;;;;;4998291;28;19917;-57
2022/08/16 12:11:04;;;;;;;;;;;;;;;;;;4996060;28;19932;-58
2022/08/16 12:13:30;;;;;;;;;;;;;;;;;;4998828;28;19929;-58
2022/08/16 12:15:55;;;;;;;;;;;;;;;;;;4998000;28;20278;-58
2022/08/16 12:18:20;;;;;;;;;;;;;;;;;;4995910;28;19921;-57
2022/08/16 12:20:46;;;;;;;;;;;;;;;;;;5013695;28;19949;-57
2022/08/16 12:23:11;;;;;;;;;;;;;;;;;;5001042;28;19924;-58
2022/08/16 12:25:36;;;;;;;;;;;;;;;;;;4996452;28;19922;-57
2022/08/16 12:28:01;;;;;;;;;;;;;;;;;;4999158;28;19917;-57
2022/08/16 12:30:30;;;;;;;;;;;;;;;;;;5011603;28;19971;-57
2022/08/16 12:32:55;;;;;;;;;;;;;;;;;;4992834;28;19921;-58
2022/08/16 12:35:20;;;;;;;;;;;;;;;;;;4994033;28;20257;-58
2022/08/16 12:37:45;;;;;;;;;;;;;;;;;;4991059;28;20294;-57
2022/08/16 12:40:11;;;;;;;;;;;;;;;;;;4992083;28;20059;-57
2022/08/16 12:42:36;;;;;;;;;;;;;;;;;;4993388;28;20628;-57
2022/08/16 12:45:02;;;;;;;;;;;;;;;;;;4995030;28;19920;-59
2022/08/16 12:50:11;;;;;;;;;;;;;;;;;;4992322;28;19925;-58
2022/08/16 12:52:36;;;;;;;;;;;;;;;;;;4992332;28;19968;-58
2022/08/16 12:55:01;;;;;;;;;;;;;;;;;;4995290;28;19918;-57
2022/08/16 12:57:27;;;;;;;;;;;;;;;;;;4994168;28;19917;-58
2022/08/16 12:59:52;;;;;;;;;;;;;;;;;;4990435;28;19949;-58
2022/08/16 13:02:18;;;;;;;;;;;;;;;;;;4992705;28;20033;-58
2022/08/16 13:04:46;;;;;;;;;;;;;;;;;;4993213;28;19924;-58
2022/08/16 13:07:12;;;;;;;;;;;;;;;;;;4991227;28;20040;-59
2022/08/16 13:09:46;;;;;;;;;;;;;;;;;;4992509;28;20342;-58
2022/08/16 13:12:18;;;;;;;;;;;;;;;;;;4992638;28;19936;-58
2022/08/16 13:14:43;;;;;;;;;;;;;;;;;;4993668;28;20016;-58
2022/08/16 13:17:08;;;;;;;;;;;;;;;;;;5001117;28;20008;-58
2022/08/16 13:19:34;;;;;;;;;;;;;;;;;;4989528;28;19972;-59
2022/08/16 13:21:59;;;;;;;;;;;;;;;;;;4993687;28;19964;-59
2022/08/16 13:24:24;;;;;;;;;;;;;;;;;;4992577;28;19972;-58
2022/08/16 13:26:50;;;;;;;;;;;;;;;;;;4992215;28;20166;-58
2022/08/16 13:29:15;;;;;;;;;;;;;;;;;;4992411;28;19944;-58
2022/08/16 13:31:40;;;;;;;;;;;;;;;;;;4989614;28;20275;-59
2022/08/16 13:34:05;;;;;;;;;;;;;;;;;;4992459;28;20020;-57
2022/08/16 13:36:30;;;;;;;;;;;;;;;;;;4992186;28;19928;-57
2022/08/16 13:38:56;;;;;;;;;;;;;;;;;;4993239;28;19917;-57
2022/08/16 13:41:21;;;;;;;;;;;;;;;;;;4992007;28;19926;-58
2022/08/16 13:43:46;;;;;;;;;;;;;;;;;;4994697;28;19918;-58
2022/08/16 13:46:12;;;;;;;;;;;;;;;;;;4991158;28;19918;-59
2022/08/16 13:48:37;;;;;;;;;;;;;;;;;;4991878;28;19924;-58
2022/08/16 13:51:02;;;;;;;;;;;;;;;;;;4991090;28;19928;-57
2022/08/16 13:53:27;;;;;;;;;;;;;;;;;;4989679;28;19928;-58
2022/08/16 13:55:52;;;;;;;;;;;;;;;;;;4989936;28;20637;-57
2022/08/16 13:58:18;;;;;;;;;;;;;;;;;;4991805;28;20414;-58
2022/08/16 14:00:44;;;;;;;;;;;;;;;;;;4993118;28;19961;-57
2022/08/16 14:03:09;;;;;;;;;;;;;;;;;;4993431;28;19957;-58
2022/08/16 14:05:34;;;;;;;;;;;;;;;;;;4993774;28;20001;-58
2022/08/16 14:08:00;;;;;;;;;;;;;;;;;;4991211;28;19961;-57
2022/08/16 14:10:25;;;;;;;;;;;;;;;;;;4991293;28;20299;-57
2022/08/16 14:12:50;;;;;;;;;;;;;;;;;;4989323;28;19944;-57
2022/08/16 14:15:16;;;;;;;;;;;;;;;;;;4990404;28;19929;-57
2022/08/16 14:17:41;;;;;;;;;;;;;;;;;;4988187;28;19920;-58
2022/08/16 14:20:06;;;;;;;;;;;;;;;;;;4989913;28;19929;-57
2022/08/16 14:22:57;;;;;;;;;;;;;;;;;;4990430;28;19996;-56
2022/08/16 14:25:48;;;;;;;;;;;;;;;;;;4990729;28;19924;-57
2022/08/16 14:28:13;;;;;;;;;;;;;;;;;;4990032;28;19922;-58
2022/08/16 14:30:39;;;;;;;;;;;;;;;;;;4988291;28;19921;-58
2022/08/16 14:33:04;;;;;;;;;;;;;;;;;;4989300;28;19917;-56
2022/08/16 14:35:30;;;;;;;;;;;;;;;;;;4989369;28;19926;-57
2022/08/16 14:37:55;;;;;;;;;;;;;;;;;;4989341;28;20854;-57
2022/08/16 14:40:21;;;;;;;;;;;;;;;;;;4991367;28;19918;-56
2022/08/16 14:42:46;;;;;;;;;;;;;;;;;;4992729;28;19925;-56
2022/08/16 14:45:12;;;;;;;;;;;;;;;;;;4991570;28;19917;-57
2022/08/16 14:47:37;;;;;;;;;;;;;;;;;;4993399;28;19948;-56
2022/08/16 14:50:02;;;;;;;;;;;;;;;;;;4993578;28;20473;-57
2022/08/16 14:52:28;;;;;;;;;;;;;;;;;;4994140;28;19925;-57
2022/08/16 14:54:53;;;;;;;;;;;;;;;;;;4994165;28;19988;-58
2022/08/16 14:57:19;;;;;;;;;;;;;;;;;;4992664;28;19990;-56
2022/08/16 14:59:44;;;;;;;;;;;;;;;;;;4992059;28;19972;-57
2022/08/16 15:02:09;;;;;;;;;;;;;;;;;;4992387;28;19957;-56
2022/08/16 15:04:34;;;;;;;;;;;;;;;;;;4992761;28;19918;-57
2022/08/16 15:06:59;;;;;;;;;;;;;;;;;;4993314;28;19917;-56
2022/08/16 15:09:24;;;;;;;;;;;;;;;;;;4994062;28;20267;-57
2022/08/16 15:11:50;;;;;;;;;;;;;;;;;;4992063;28;20366;-57
2022/08/16 15:14:15;;;;;;;;;;;;;;;;;;4993174;28;19932;-58
2022/08/16 15:35:36;;;;;;;;;;;;;;;;;;4978225;28;19928;-59
2022/08/16 15:38:02;;;;;;;;;;;;;;;;;;4987835;28;19921;-58
2022/08/16 15:40:27;;;;;;;;;;;;;;;;;;5000596;28;20505;-57
2022/08/16 15:42:53;;;;;;;;;;;;;;;;;;4994502;28;20648;-57
2022/08/16 15:46:21;;;;;;;;;;;;;;;;;;4984900;28;19918;-58
2022/08/16 15:48:03;;;;;;;;;;;;;;;;;;4986897;28;19925;-59
2022/08/16 15:50:29;;;;;;;;;;;;;;;;;;4990180;28;19917;-56
2022/08/16 15:52:54;;;;;;;;;;;;;;;;;;4988508;28;20016;-58
2022/08/16 15:55:19;;;;;;;;;;;;;;;;;;4988760;28;19917;-59
2022/08/16 15:57:46;;;;;;;;;;;;;;;;;;4985527;28;19917;-57
2022/08/16 16:00:12;;;;;;;;;;;;;;;;;;4994483;28;20331;-58
2022/08/16 16:02:37;;;;;;;;;;;;;;;;;;4993180;28;20020;-57
2022/08/16 16:05:03;;;;;;;;;;;;;;;;;;4985276;28;19917;-58
2022/08/16 16:07:28;;;;;;;;;;;;;;;;;;4989721;28;20036;-56
2022/08/16 16:09:53;;;;;;;;;;;;;;;;;;4985740;28;19978;-58
2022/08/16 16:12:18;;;;;;;;;;;;;;;;;;4986508;28;19917;-57
2022/08/16 16:14:44;;;;;;;;;;;;;;;;;;4998437;28;19918;-58
2022/08/16 16:17:09;;;;;;;;;;;;;;;;;;4985801;28;20036;-58
2022/08/16 16:19:34;;;;;;;;;;;;;;;;;;4998269;28;20612;-57
2022/08/16 16:21:59;;;;;;;;;;;;;;;;;;5001757;28;20776;-59
2022/08/16 16:24:25;;;;;;;;;;;;;;;;;;5005127;28;20024;-59
2022/08/16 16:26:50;;;;;;;;;;;;;;;;;;5006007;28;19920;-58
2022/08/16 16:29:15;;;;;;;;;;;;;;;;;;5004735;28;20769;-59
2022/08/16 16:31:41;;;;;;;;;;;;;;;;;;5007636;28;19917;-58
2022/08/16 16:34:06;;;;;;;;;;;;;;;;;;5004499;28;19921;-57
2022/08/16 16:36:32;;;;;;;;;;;;;;;;;;4999615;28;19925;-58
2022/08/16 16:38:57;;;;;;;;;;;;;;;;;;5008482;28;19964;-58
2022/08/16 16:41:24;;;;;;;;;;;;;;;;;;5004751;28;20394;-58
2022/08/16 16:43:49;;;;;;;;;;;;;;;;;;5003074;28;19957;-58
2022/08/16 16:46:14;;;;;;;;;;;;;;;;;;5006390;28;20056;-58
2022/08/16 16:48:40;;;;;;;;;;;;;;;;;;5009088;28;19924;-59
2022/08/16 16:51:05;;;;;;;;;;;;;;;;;;5011277;28;19956;-59
2022/08/16 16:53:31;;;;;;;;;;;;;;;;;;5011958;28;19924;-58
2022/08/16 16:55:56;;;;;;;;;;;;;;;;;;5010043;28;20008;-58
2022/08/16 17:01:05;;;;;;;;;;;;;;;;;;5024681;28;19921;-57
2022/08/16 17:03:30;;;;;;;;;;;;;;;;;;5011058;28;20559;-57
2022/08/16 17:05:55;;;;;;;;;;;;;;;;;;5011150;28;19928;-57